createdAt,value
2023-03-13T00:00:46.083Z,100671.38
2023-03-13T00:05:49.545Z,100670.09
2023-03-13T00:10:54.345Z,100673.53
2023-03-13T00:16:02.044Z,100666.63
2023-03-13T00:21:07.939Z,100647.84
2023-03-13T00:26:14.377Z,100627.84
2023-03-13T00:31:19.585Z,100614.47
2023-03-13T00:36:24.548Z,100603.16
2023-03-13T00:41:31.260Z,100595.38
2023-03-13T00:46:34.664Z,100593.50
2023-03-13T00:51:38.106Z,100589.66
2023-03-13T00:56:42.708Z,100598.88
2023-03-13T01:01:45.957Z,100595.13
2023-03-13T01:06:49.247Z,100588.41
2023-03-13T01:11:53.879Z,100575.84
2023-03-13T01:16:57.176Z,100581.16
2023-03-13T01:22:00.368Z,100585.38
2023-03-13T01:27:05.235Z,100568.59
2023-03-13T01:32:09.413Z,100533.28
2023-03-13T01:37:13.012Z,100550.00
2023-03-13T01:42:17.577Z,100561.56
2023-03-13T01:47:21.215Z,100562.09
2023-03-13T01:52:27.732Z,100582.53
2023-03-13T01:57:35.538Z,100593.34
2023-03-13T02:02:42.901Z,100572.84
2023-03-13T02:07:49.890Z,100575.97
2023-03-13T02:12:55.487Z,100563.13
2023-03-13T02:18:00.436Z,100578.16
2023-03-13T02:23:07.444Z,100582.53
2023-03-13T02:28:16.937Z,100582.25
2023-03-13T02:33:22.598Z,100599.28
2023-03-13T02:38:28.625Z,100581.06
2023-03-13T02:43:35.352Z,100581.94
2023-03-13T02:48:41.013Z,100567.38
2023-03-13T02:53:44.905Z,100567.34
2023-03-13T02:58:50.643Z,100546.84
2023-03-13T03:03:54.048Z,100535.91
2023-03-13T03:08:57.409Z,100521.00
2023-03-13T03:14:02.645Z,100511.13
2023-03-13T03:19:06.642Z,100521.69
2023-03-13T03:24:10.259Z,100511.66
2023-03-13T03:29:15.050Z,100498.38
2023-03-13T03:34:18.403Z,100479.22
2023-03-13T03:39:21.666Z,100471.59
2023-03-13T03:44:26.401Z,100479.88
2023-03-13T03:49:29.584Z,100480.59
2023-03-13T03:54:32.866Z,100482.13
2023-03-13T03:59:37.620Z,100496.13
2023-03-13T04:04:40.928Z,100501.00
2023-03-13T04:09:44.237Z,100505.16
2023-03-13T04:14:48.976Z,100506.81
2023-03-13T04:19:52.145Z,100498.97
2023-03-13T04:24:55.415Z,100508.38
2023-03-13T04:30:00.012Z,100500.66
2023-03-13T04:35:03.326Z,100491.16
2023-03-13T04:40:08.081Z,100480.28
2023-03-13T04:45:14.492Z,100472.03
2023-03-13T04:50:18.117Z,100472.88
2023-03-13T04:55:22.144Z,100478.50
2023-03-13T05:00:26.737Z,100478.19
2023-03-13T05:05:29.897Z,100463.44
2023-03-13T05:10:33.107Z,100456.03
2023-03-13T05:15:37.635Z,100451.56
2023-03-13T05:20:40.792Z,100440.78
2023-03-13T05:25:43.927Z,100425.00
2023-03-13T05:30:48.519Z,100426.78
2023-03-13T05:35:51.815Z,100425.44
2023-03-13T05:40:54.950Z,100411.16
2023-03-13T05:45:59.538Z,100392.47
2023-03-13T05:51:02.633Z,100377.56
2023-03-13T05:56:06.388Z,100344.50
2023-03-13T06:01:13.605Z,100353.09
2023-03-13T06:06:16.740Z,100352.31
2023-03-13T06:11:19.883Z,100361.84
2023-03-13T06:16:24.518Z,100382.97
2023-03-13T06:21:27.809Z,100386.22
2023-03-13T06:26:30.926Z,100382.78
2023-03-13T06:31:35.606Z,100382.97
2023-03-13T06:36:38.870Z,100354.56
2023-03-13T06:41:42.072Z,100336.47
2023-03-13T06:46:46.773Z,100334.13
2023-03-13T06:51:49.975Z,100336.97
2023-03-13T06:56:53.114Z,100313.53
2023-03-13T07:01:57.646Z,100318.59
2023-03-13T07:07:00.789Z,100311.75
2023-03-13T07:12:04.758Z,100311.41
2023-03-13T07:17:09.364Z,100305.50
2023-03-13T07:22:12.519Z,100318.09
2023-03-13T07:27:17.545Z,100330.53
2023-03-13T07:32:22.136Z,100333.88
2023-03-13T07:37:25.288Z,100323.56
2023-03-13T07:42:28.443Z,100318.63
2023-03-13T07:47:35.342Z,100317.16
2023-03-13T07:52:38.480Z,100326.94
2023-03-13T07:57:41.598Z,100333.94
2023-03-13T08:02:46.151Z,100337.91
2023-03-13T08:07:49.358Z,100340.91
2023-03-13T08:12:52.461Z,100339.03
2023-03-13T08:17:57.011Z,100343.94
2023-03-13T08:23:00.176Z,100348.81
2023-03-13T08:28:03.282Z,100343.59
2023-03-13T08:33:08.026Z,100331.44
2023-03-13T08:38:11.217Z,100363.03
2023-03-13T08:43:14.381Z,100390.06
2023-03-13T08:48:18.947Z,100381.44
2023-03-13T08:53:22.086Z,100376.53
2023-03-13T08:58:25.382Z,100391.13
2023-03-13T09:03:30.122Z,100393.22
2023-03-13T09:08:33.374Z,100382.81
2023-03-13T09:13:38.520Z,100409.00
2023-03-13T09:18:43.750Z,100403.41
2023-03-13T09:23:47.514Z,100421.28
2023-03-13T09:28:50.788Z,100429.28
2023-03-13T09:33:55.509Z,100431.03
2023-03-13T09:39:00.863Z,100437.75
2023-03-13T09:44:08.805Z,100442.69
2023-03-13T09:49:22.185Z,100429.53
2023-03-13T09:54:29.098Z,100434.94
2023-03-13T09:59:40.224Z,100459.91
2023-03-13T10:04:50.478Z,100463.94
2023-03-13T10:09:53.947Z,100467.16
2023-03-13T10:15:17.403Z,100453.44
2023-03-13T10:20:26.311Z,100493.31
2023-03-13T10:25:33.484Z,100500.25
2023-03-13T10:30:38.941Z,100505.94
2023-03-13T10:35:45.091Z,100496.03
2023-03-13T10:40:59.268Z,100507.09
2023-03-13T10:46:04.024Z,100490.72
2023-03-13T10:51:23.165Z,100479.31
2023-03-13T10:56:30.621Z,100488.38
2023-03-13T11:01:44.951Z,100509.59
2023-03-13T11:06:53.830Z,100514.19
2023-03-13T11:12:03.232Z,100520.66
2023-03-13T11:17:16.470Z,100512.69
2023-03-13T11:22:32.203Z,100514.63
2023-03-13T11:27:44.104Z,100516.38
2023-03-13T11:32:53.709Z,100543.00
2023-03-13T11:37:58.703Z,100545.66
2023-03-13T11:43:25.347Z,100546.72
2023-03-13T11:48:45.928Z,100566.66
2023-03-13T11:54:14.632Z,100559.16
2023-03-13T11:59:37.755Z,100555.22
2023-03-13T12:04:45.113Z,100575.41
2023-03-13T12:09:53.918Z,100576.00
2023-03-13T12:15:01.455Z,100587.09
2023-03-13T12:20:10.152Z,100592.41
2023-03-13T12:25:22.800Z,100572.72
2023-03-13T12:30:34.885Z,100591.00
2023-03-13T12:35:39.613Z,100589.41
2023-03-13T12:40:52.839Z,100587.53
2023-03-13T12:46:16.032Z,100587.16
2023-03-13T12:51:36.017Z,100569.97
2023-03-13T12:56:53.803Z,100551.00
2023-03-13T13:01:59.056Z,100539.88
2023-03-13T13:07:06.345Z,100507.38
2023-03-13T13:12:22.495Z,100491.06
2023-03-13T13:17:35.932Z,100490.63
2023-03-13T13:22:52.680Z,100499.47
2023-03-13T13:27:59.096Z,100556.69
2023-03-13T13:33:35.400Z,100534.06
2023-03-13T13:38:40.574Z,100611.66
2023-03-13T13:43:46.761Z,100585.25
2023-03-13T13:49:09.782Z,100609.69
2023-03-13T13:54:35.503Z,100607.84
2023-03-13T13:59:44.285Z,100619.75
2023-03-13T14:05:05.365Z,100605.81
2023-03-13T14:10:19.230Z,100610.16
2023-03-13T14:15:25.164Z,100605.84
2023-03-13T14:20:34.637Z,100591.72
2023-03-13T14:25:46.953Z,100597.00
2023-03-13T14:30:54.458Z,100597.94
2023-03-13T14:35:58.914Z,100594.44
2023-03-13T14:41:01.941Z,100616.75
2023-03-13T14:46:17.690Z,100606.44
2023-03-13T14:51:25.277Z,100608.38
2023-03-13T14:56:37.000Z,100611.41
2023-03-13T15:01:41.559Z,100622.16
2023-03-13T15:06:44.539Z,100609.97
2023-03-13T15:11:56.861Z,100619.16
2023-03-13T15:17:01.545Z,100616.50
2023-03-13T15:22:06.181Z,100631.59
2023-03-13T15:27:19.282Z,100623.25
2023-03-13T15:32:30.048Z,100640.78
2023-03-13T15:37:33.306Z,100640.59
2023-03-13T15:42:36.416Z,100643.06
2023-03-13T15:47:40.963Z,100672.94
2023-03-13T15:52:44.579Z,100661.63
2023-03-13T15:57:50.944Z,100671.47
2023-03-13T16:02:55.460Z,100695.03
2023-03-13T16:07:58.640Z,100693.81
2023-03-13T16:13:03.573Z,100703.91
2023-03-13T16:18:08.629Z,100709.41
2023-03-13T16:23:11.798Z,100698.41
2023-03-13T16:28:16.090Z,100702.84
2023-03-13T16:33:20.641Z,100714.78
2023-03-13T16:38:25.177Z,100715.69
2023-03-13T16:43:28.307Z,100721.47
2023-03-13T16:48:32.934Z,100704.53
2023-03-13T16:53:36.108Z,100709.44
2023-03-13T16:58:39.389Z,100712.78
2023-03-13T17:03:43.958Z,100706.25
2023-03-13T17:08:47.113Z,100725.00
2023-03-13T17:13:52.150Z,100712.31
2023-03-13T17:18:58.759Z,100725.31
2023-03-13T17:24:02.001Z,100731.91
2023-03-13T17:29:06.489Z,100750.25
2023-03-13T17:34:11.959Z,100750.13
2023-03-13T17:39:15.986Z,100750.44
2023-03-13T17:44:19.139Z,100744.66
2023-03-13T17:49:23.946Z,100754.91
2023-03-13T17:54:26.803Z,100751.38
2023-03-13T17:59:30.564Z,100761.72
2023-03-13T18:04:35.083Z,100790.66
2023-03-13T18:09:38.305Z,100780.81
2023-03-13T18:14:41.482Z,100788.84
2023-03-13T18:19:46.463Z,100793.31
2023-03-13T18:24:50.231Z,100801.09
2023-03-13T18:29:53.375Z,100809.81
2023-03-13T18:34:57.937Z,100806.44
2023-03-13T18:40:01.393Z,100801.16
2023-03-13T18:45:05.096Z,100791.06
2023-03-13T18:50:25.165Z,100800.50
2023-03-13T18:55:30.216Z,100800.94
2023-03-13T19:00:33.109Z,100810.94
2023-03-13T19:05:37.651Z,100818.31
2023-03-13T19:10:41.332Z,100828.13
2023-03-13T19:15:44.497Z,100831.59
2023-03-13T19:20:50.029Z,100837.63
2023-03-13T19:25:53.563Z,100837.38
2023-03-13T19:30:56.700Z,100833.69
2023-03-13T19:36:01.436Z,100845.94
2023-03-13T19:41:04.674Z,100870.56
2023-03-13T19:46:24.066Z,100897.38
2023-03-13T19:51:29.879Z,100892.59
2023-03-13T19:56:33.452Z,100905.25
2023-03-13T20:01:36.633Z,100910.88
2023-03-13T20:06:42.399Z,100927.53
2023-03-13T20:11:46.519Z,100951.63
2023-03-13T20:16:49.922Z,100951.50
2023-03-13T20:21:54.828Z,100959.38
2023-03-13T20:26:57.776Z,100947.31
2023-03-13T20:32:04.714Z,100952.31
2023-03-13T20:37:09.428Z,100966.78
2023-03-13T20:42:12.924Z,100959.97
2023-03-13T20:47:16.145Z,100958.31
2023-03-13T20:52:20.778Z,100958.81
2023-03-13T20:57:24.033Z,100968.66
2023-03-13T21:02:27.220Z,100960.41
2023-03-13T21:07:32.311Z,100969.34
2023-03-13T21:12:36.408Z,100963.25
2023-03-13T21:17:40.098Z,100958.88
2023-03-13T21:22:45.001Z,100957.56
2023-03-13T21:27:48.179Z,100962.25
2023-03-13T21:32:51.423Z,100968.75
2023-03-13T21:37:56.002Z,100982.06
2023-03-13T21:42:59.184Z,100983.00
2023-03-13T21:48:02.393Z,100988.34
2023-03-13T21:53:07.024Z,100978.59
2023-03-13T21:58:10.228Z,100981.22
2023-03-13T22:03:13.667Z,100985.44
2023-03-13T22:08:18.328Z,100984.94
2023-03-13T22:13:21.592Z,100991.66
2023-03-13T22:18:24.854Z,100987.09
2023-03-13T22:23:29.622Z,100995.53
2023-03-13T22:28:32.956Z,100993.41
2023-03-13T22:33:36.948Z,101002.91
2023-03-13T22:38:41.630Z,101013.66
2023-03-13T22:43:45.279Z,101014.97
2023-03-13T22:48:48.529Z,101019.19
2023-03-13T22:53:53.232Z,101015.81
2023-03-13T22:58:56.759Z,101024.31
2023-03-13T23:04:00.162Z,101036.91
2023-03-13T23:09:05.640Z,101037.16
2023-03-13T23:14:08.931Z,101040.91
2023-03-13T23:19:12.378Z,101030.53
2023-03-13T23:24:17.039Z,101045.66
2023-03-13T23:29:20.329Z,101046.28
2023-03-13T23:34:23.585Z,101056.25
2023-03-13T23:39:28.251Z,101051.97
2023-03-13T23:44:31.831Z,101052.31
2023-03-13T23:49:35.049Z,101053.28
2023-03-13T23:54:39.691Z,101054.50
2023-03-13T23:59:43.087Z,101064.25
